sensor_id;sensor_type;location;lat;lon;timestamp;pressure;altitude;pressure_sealevel;temperature;humidity
8366;BME280;4220;42.502;24.188;2023-04-21T00:00:49;94806.94;;;12.66;98.50
8366;BME280;4220;42.502;24.188;2023-04-21T00:03:17;94795.19;;;12.62;98.22
8366;BME280;4220;42.502;24.188;2023-04-21T00:05:46;94801.72;;;12.71;97.32
8366;BME280;4220;42.502;24.188;2023-04-21T00:08:13;94802.03;;;12.75;96.45
8366;BME280;4220;42.502;24.188;2023-04-21T00:10:40;94788.72;;;12.58;96.31
8366;BME280;4220;42.502;24.188;2023-04-21T00:13:07;94798.53;;;12.41;98.65
8366;BME280;4220;42.502;24.188;2023-04-21T00:15:34;94794.81;;;12.25;99.04
8366;BME280;4220;42.502;24.188;2023-04-21T00:18:01;94790.72;;;12.06;99.98
8366;BME280;4220;42.502;24.188;2023-04-21T00:20:30;94789.19;;;11.82;100.00
8366;BME280;4220;42.502;24.188;2023-04-21T00:22:58;94790.25;;;11.81;100.00
8366;BME280;4220;42.502;24.188;2023-04-21T00:25:25;94781.59;;;11.74;100.00
8366;BME280;4220;42.502;24.188;2023-04-21T00:27:52;94763.78;;;11.74;100.00
8366;BME280;4220;42.502;24.188;2023-04-21T00:30:19;94775.91;;;11.82;99.39
8366;BME280;4220;42.502;24.188;2023-04-21T00:32:46;94787.28;;;11.94;99.99
8366;BME280;4220;42.502;24.188;2023-04-21T00:35:13;94783.41;;;11.85;99.87
8366;BME280;4220;42.502;24.188;2023-04-21T00:37:41;94780.31;;;11.65;100.00
8366;BME280;4220;42.502;24.188;2023-04-21T00:40:08;94789.25;;;11.47;100.00
8366;BME280;4220;42.502;24.188;2023-04-21T00:42:35;94787.31;;;11.20;100.00
8366;BME280;4220;42.502;24.188;2023-04-21T00:45:03;94773.25;;;10.96;100.00
8366;BME280;4220;42.502;24.188;2023-04-21T00:47:30;94776.00;;;11.01;100.00
8366;BME280;4220;42.502;24.188;2023-04-21T00:49:56;94776.94;;;11.06;100.00
8366;BME280;4220;42.502;24.188;2023-04-21T00:52:24;94775.81;;;11.02;100.00
8366;BME280;4220;42.502;24.188;2023-04-21T00:54:53;94768.41;;;11.04;100.00
8366;BME280;4220;42.502;24.188;2023-04-21T00:57:20;94772.78;;;10.99;100.00
8366;BME280;4220;42.502;24.188;2023-04-21T00:59:47;94763.00;;;10.88;100.00
8366;BME280;4220;42.502;24.188;2023-04-21T01:02:16;94768.88;;;10.78;100.00
8366;BME280;4220;42.502;24.188;2023-04-21T01:04:44;94757.78;;;10.70;100.00
8366;BME280;4220;42.502;24.188;2023-04-21T01:07:11;94762.16;;;10.64;100.00
8366;BME280;4220;42.502;24.188;2023-04-21T01:09:37;94765.88;;;10.63;100.00
8366;BME280;4220;42.502;24.188;2023-04-21T01:12:07;94754.31;;;10.69;100.00
8366;BME280;4220;42.502;24.188;2023-04-21T01:14:34;94758.13;;;10.62;100.00
8366;BME280;4220;42.502;24.188;2023-04-21T01:17:01;94762.59;;;10.49;100.00
8366;BME280;4220;42.502;24.188;2023-04-21T01:19:31;94755.78;;;10.30;100.00
8366;BME280;4220;42.502;24.188;2023-04-21T01:22:01;94732.00;;;10.12;100.00
8366;BME280;4220;42.502;24.188;2023-04-21T01:24:36;94754.97;;;10.30;100.00
8366;BME280;4220;42.502;24.188;2023-04-21T01:27:04;94757.84;;;10.28;100.00
8366;BME280;4220;42.502;24.188;2023-04-21T01:29:33;94753.44;;;10.22;100.00
8366;BME280;4220;42.502;24.188;2023-04-21T01:32:04;94765.00;;;10.28;100.00
8366;BME280;4220;42.502;24.188;2023-04-21T01:34:31;94755.34;;;10.04;100.00
8366;BME280;4220;42.502;24.188;2023-04-21T01:36:58;94754.91;;;10.07;100.00
8366;BME280;4220;42.502;24.188;2023-04-21T01:39:27;94761.41;;;9.93;100.00
8366;BME280;4220;42.502;24.188;2023-04-21T01:41:54;94762.75;;;9.83;100.00
8366;BME280;4220;42.502;24.188;2023-04-21T01:44:22;94764.72;;;9.88;100.00
8366;BME280;4220;42.502;24.188;2023-04-21T01:46:49;94766.94;;;9.91;100.00
8366;BME280;4220;42.502;24.188;2023-04-21T01:49:16;94762.28;;;10.05;100.00
8366;BME280;4220;42.502;24.188;2023-04-21T01:51:43;94773.88;;;10.22;100.00
8366;BME280;4220;42.502;24.188;2023-04-21T01:54:10;94748.63;;;10.19;100.00
8366;BME280;4220;42.502;24.188;2023-04-21T01:56:38;94767.31;;;10.36;100.00
8366;BME280;4220;42.502;24.188;2023-04-21T01:59:05;94763.28;;;10.22;100.00
8366;BME280;4220;42.502;24.188;2023-04-21T02:01:32;94757.22;;;10.15;100.00
8366;BME280;4220;42.502;24.188;2023-04-21T02:04:00;94760.00;;;10.20;100.00
8366;BME280;4220;42.502;24.188;2023-04-21T02:06:27;94744.63;;;10.10;100.00
8366;BME280;4220;42.502;24.188;2023-04-21T02:08:54;94744.75;;;10.04;100.00
8366;BME280;4220;42.502;24.188;2023-04-21T02:11:21;94747.16;;;10.05;100.00
8366;BME280;4220;42.502;24.188;2023-04-21T02:13:51;94750.03;;;10.04;100.00
8366;BME280;4220;42.502;24.188;2023-04-21T02:16:17;94744.84;;;9.97;100.00
8366;BME280;4220;42.502;24.188;2023-04-21T02:18:45;94697.63;;;9.64;100.00
8366;BME280;4220;42.502;24.188;2023-04-21T02:21:13;94746.69;;;9.97;100.00
8366;BME280;4220;42.502;24.188;2023-04-21T02:23:40;94745.41;;;9.88;100.00
8366;BME280;4220;42.502;24.188;2023-04-21T02:26:06;94720.06;;;9.92;100.00
8366;BME280;4220;42.502;24.188;2023-04-21T02:28:33;94739.16;;;10.12;100.00
8366;BME280;4220;42.502;24.188;2023-04-21T02:31:01;94741.25;;;10.21;100.00
8366;BME280;4220;42.502;24.188;2023-04-21T02:33:28;94743.22;;;10.26;100.00
8366;BME280;4220;42.502;24.188;2023-04-21T02:35:55;94738.16;;;10.36;100.00
8366;BME280;4220;42.502;24.188;2023-04-21T02:38:22;94730.53;;;10.28;100.00
8366;BME280;4220;42.502;24.188;2023-04-21T02:40:49;94732.75;;;10.31;100.00
8366;BME280;4220;42.502;24.188;2023-04-21T02:43:16;94727.44;;;10.19;100.00
8366;BME280;4220;42.502;24.188;2023-04-21T02:45:43;94721.47;;;10.06;100.00
8366;BME280;4220;42.502;24.188;2023-04-21T02:48:11;94731.06;;;10.07;100.00
8366;BME280;4220;42.502;24.188;2023-04-21T02:50:38;94740.31;;;10.16;100.00
8366;BME280;4220;42.502;24.188;2023-04-21T02:53:06;94734.19;;;10.15;100.00
8366;BME280;4220;42.502;24.188;2023-04-21T02:55:33;94740.00;;;10.24;100.00
8366;BME280;4220;42.502;24.188;2023-04-21T02:57:59;94742.97;;;10.16;100.00
8366;BME280;4220;42.502;24.188;2023-04-21T03:00:26;94742.50;;;10.19;100.00
8366;BME280;4220;42.502;24.188;2023-04-21T03:02:53;94749.78;;;9.94;100.00
8366;BME280;4220;42.502;24.188;2023-04-21T03:05:21;94750.97;;;9.68;100.00
8366;BME280;4220;42.502;24.188;2023-04-21T03:07:48;94729.72;;;9.56;100.00
8366;BME280;4220;42.502;24.188;2023-04-21T03:10:15;94745.44;;;9.69;100.00
8366;BME280;4220;42.502;24.188;2023-04-21T03:12:44;94747.34;;;9.62;100.00
8366;BME280;4220;42.502;24.188;2023-04-21T03:15:10;94746.50;;;9.50;100.00
8366;BME280;4220;42.502;24.188;2023-04-21T03:17:38;94744.13;;;9.60;100.00
8366;BME280;4220;42.502;24.188;2023-04-21T03:20:06;94745.38;;;9.58;100.00
8366;BME280;4220;42.502;24.188;2023-04-21T03:22:35;94747.34;;;9.62;100.00
8366;BME280;4220;42.502;24.188;2023-04-21T03:25:02;94742.50;;;9.59;100.00
8366;BME280;4220;42.502;24.188;2023-04-21T03:27:29;94748.50;;;9.66;100.00
8366;BME280;4220;42.502;24.188;2023-04-21T03:29:56;94759.81;;;9.73;100.00
8366;BME280;4220;42.502;24.188;2023-04-21T03:32:23;94758.66;;;9.69;100.00
8366;BME280;4220;42.502;24.188;2023-04-21T03:34:50;94756.91;;;9.63;100.00
8366;BME280;4220;42.502;24.188;2023-04-21T03:37:17;94753.38;;;9.69;100.00
8366;BME280;4220;42.502;24.188;2023-04-21T03:39:45;94769.84;;;9.71;100.00
8366;BME280;4220;42.502;24.188;2023-04-21T03:42:11;94762.63;;;9.78;100.00
8366;BME280;4220;42.502;24.188;2023-04-21T03:44:38;94763.28;;;9.74;100.00
8366;BME280;4220;42.502;24.188;2023-04-21T03:47:05;94775.84;;;9.78;100.00
8366;BME280;4220;42.502;24.188;2023-04-21T03:49:33;94764.78;;;9.70;100.00
8366;BME280;4220;42.502;24.188;2023-04-21T03:52:00;94782.53;;;9.81;100.00
8366;BME280;4220;42.502;24.188;2023-04-21T03:54:26;94719.81;;;9.34;100.00
8366;BME280;4220;42.502;24.188;2023-04-21T03:56:55;94772.84;;;9.75;100.00
8366;BME280;4220;42.502;24.188;2023-04-21T03:59:21;94762.34;;;9.68;100.00
8366;BME280;4220;42.502;24.188;2023-04-21T04:01:48;94776.38;;;9.69;100.00
8366;BME280;4220;42.502;24.188;2023-04-21T04:04:15;94758.91;;;9.68;100.00
8366;BME280;4220;42.502;24.188;2023-04-21T04:06:42;94747.06;;;9.70;100.00
8366;BME280;4220;42.502;24.188;2023-04-21T04:09:09;94757.69;;;9.82;100.00
8366;BME280;4220;42.502;24.188;2023-04-21T04:11:36;94751.13;;;9.84;100.00
8366;BME280;4220;42.502;24.188;2023-04-21T04:14:04;94766.47;;;9.94;100.00
8366;BME280;4220;42.502;24.188;2023-04-21T04:16:32;94750.09;;;9.85;100.00
8366;BME280;4220;42.502;24.188;2023-04-21T04:18:59;94743.34;;;9.71;100.00
8366;BME280;4220;42.502;24.188;2023-04-21T04:21:26;94784.44;;;9.92;100.00
8366;BME280;4220;42.502;24.188;2023-04-21T04:23:53;94774.06;;;9.91;100.00
8366;BME280;4220;42.502;24.188;2023-04-21T04:26:21;94772.00;;;9.93;100.00
8366;BME280;4220;42.502;24.188;2023-04-21T04:28:49;94684.75;;;9.38;100.00
8366;BME280;4220;42.502;24.188;2023-04-21T04:31:17;94791.03;;;10.01;100.00
8366;BME280;4220;42.502;24.188;2023-04-21T04:33:44;94789.88;;;9.97;100.00
8366;BME280;4220;42.502;24.188;2023-04-21T04:36:11;94795.66;;;10.06;100.00
8366;BME280;4220;42.502;24.188;2023-04-21T04:38:38;94795.22;;;10.09;100.00
8366;BME280;4220;42.502;24.188;2023-04-21T04:41:06;94807.00;;;10.13;100.00
8366;BME280;4220;42.502;24.188;2023-04-21T04:43:33;94767.16;;;9.90;100.00
8366;BME280;4220;42.502;24.188;2023-04-21T04:46:01;94790.06;;;10.14;100.00
8366;BME280;4220;42.502;24.188;2023-04-21T04:48:29;94804.72;;;10.16;100.00
8366;BME280;4220;42.502;24.188;2023-04-21T04:50:56;94795.78;;;10.11;100.00
8366;BME280;4220;42.502;24.188;2023-04-21T04:53:23;94800.38;;;10.22;100.00
8366;BME280;4220;42.502;24.188;2023-04-21T04:55:50;94831.69;;;10.25;100.00
8366;BME280;4220;42.502;24.188;2023-04-21T04:58:18;94813.50;;;10.17;100.00
8366;BME280;4220;42.502;24.188;2023-04-21T05:00:44;94817.44;;;10.26;100.00
8366;BME280;4220;42.502;24.188;2023-04-21T05:03:11;94821.34;;;10.35;100.00
8366;BME280;4220;42.502;24.188;2023-04-21T05:05:39;94824.97;;;10.40;100.00
8366;BME280;4220;42.502;24.188;2023-04-21T05:08:06;94827.75;;;10.45;100.00
8366;BME280;4220;42.502;24.188;2023-04-21T05:10:33;94819.09;;;10.50;100.00
8366;BME280;4220;42.502;24.188;2023-04-21T05:13:00;94817.72;;;10.47;100.00
8366;BME280;4220;42.502;24.188;2023-04-21T05:15:27;94820.94;;;10.49;100.00
8366;BME280;4220;42.502;24.188;2023-04-21T05:17:54;94788.50;;;10.24;100.00
8366;BME280;4220;42.502;24.188;2023-04-21T05:20:21;94825.47;;;10.49;100.00
8366;BME280;4220;42.502;24.188;2023-04-21T05:22:49;94833.16;;;10.50;100.00
8366;BME280;4220;42.502;24.188;2023-04-21T05:25:16;94834.56;;;10.53;100.00
8366;BME280;4220;42.502;24.188;2023-04-21T05:27:43;94811.28;;;10.55;100.00
8366;BME280;4220;42.502;24.188;2023-04-21T05:30:10;94803.56;;;10.54;100.00
8366;BME280;4220;42.502;24.188;2023-04-21T05:32:37;94819.47;;;10.65;100.00
8366;BME280;4220;42.502;24.188;2023-04-21T05:35:04;94806.22;;;10.65;100.00
8366;BME280;4220;42.502;24.188;2023-04-21T05:37:31;94776.56;;;10.45;100.00
8366;BME280;4220;42.502;24.188;2023-04-21T05:39:59;94819.41;;;10.83;100.00
8366;BME280;4220;42.502;24.188;2023-04-21T05:42:26;94807.41;;;10.92;100.00
8366;BME280;4220;42.502;24.188;2023-04-21T05:44:53;94807.84;;;10.89;100.00
8366;BME280;4220;42.502;24.188;2023-04-21T05:47:20;94815.72;;;11.07;100.00
8366;BME280;4220;42.502;24.188;2023-04-21T05:49:50;94804.16;;;11.13;100.00
8366;BME280;4220;42.502;24.188;2023-04-21T05:52:18;94812.81;;;11.09;100.00
8366;BME280;4220;42.502;24.188;2023-04-21T05:54:45;94785.03;;;10.88;100.00
8366;BME280;4220;42.502;24.188;2023-04-21T05:57:13;94807.41;;;11.04;100.00
8366;BME280;4220;42.502;24.188;2023-04-21T05:59:41;94816.88;;;11.11;100.00
8366;BME280;4220;42.502;24.188;2023-04-21T06:02:08;94802.00;;;11.10;100.00
8366;BME280;4220;42.502;24.188;2023-04-21T06:04:35;94812.38;;;11.12;100.00
8366;BME280;4220;42.502;24.188;2023-04-21T06:07:05;94836.38;;;11.17;100.00
8366;BME280;4220;42.502;24.188;2023-04-21T06:09:33;94788.81;;;11.04;100.00
8366;BME280;4220;42.502;24.188;2023-04-21T06:12:00;94810.75;;;11.23;100.00
8366;BME280;4220;42.502;24.188;2023-04-21T06:14:29;94816.63;;;11.36;100.00
8366;BME280;4220;42.502;24.188;2023-04-21T06:16:56;94818.78;;;11.51;100.00
8366;BME280;4220;42.502;24.188;2023-04-21T06:19:23;94823.06;;;11.52;100.00
8366;BME280;4220;42.502;24.188;2023-04-21T06:21:49;94825.25;;;11.55;100.00
8366;BME280;4220;42.502;24.188;2023-04-21T06:24:16;94828.13;;;11.65;100.00
8366;BME280;4220;42.502;24.188;2023-04-21T06:26:49;94822.94;;;11.70;100.00
8366;BME280;4220;42.502;24.188;2023-04-21T06:29:16;94805.25;;;11.75;100.00
8366;BME280;4220;42.502;24.188;2023-04-21T06:31:45;94815.50;;;11.95;99.67
8366;BME280;4220;42.502;24.188;2023-04-21T06:34:11;94824.13;;;12.02;99.07
8366;BME280;4220;42.502;24.188;2023-04-21T06:36:38;94826.22;;;12.00;97.67
8366;BME280;4220;42.502;24.188;2023-04-21T06:39:05;94804.81;;;12.07;98.13
8366;BME280;4220;42.502;24.188;2023-04-21T06:41:32;94812.00;;;12.06;96.43
8366;BME280;4220;42.502;24.188;2023-04-21T06:43:59;94783.06;;;12.10;96.82
8366;BME280;4220;42.502;24.188;2023-04-21T06:46:25;94794.19;;;12.35;96.19
8366;BME280;4220;42.502;24.188;2023-04-21T06:48:54;94805.94;;;12.39;95.03
8366;BME280;4220;42.502;24.188;2023-04-21T06:51:20;94734.91;;;12.06;94.30
8366;BME280;4220;42.502;24.188;2023-04-21T06:53:47;94784.59;;;12.51;93.89
8366;BME280;4220;42.502;24.188;2023-04-21T06:56:14;94788.50;;;12.76;94.34
8366;BME280;4220;42.502;24.188;2023-04-21T06:58:41;94790.28;;;12.87;94.00
8366;BME280;4220;42.502;24.188;2023-04-21T07:01:08;94774.44;;;12.97;93.37
8366;BME280;4220;42.502;24.188;2023-04-21T07:03:35;94774.44;;;12.81;92.62
8366;BME280;4220;42.502;24.188;2023-04-21T07:06:03;94797.59;;;12.97;91.10
8366;BME280;4220;42.502;24.188;2023-04-21T07:08:30;94782.88;;;13.06;90.47
8366;BME280;4220;42.502;24.188;2023-04-21T07:10:57;94785.84;;;13.09;89.96
8366;BME280;4220;42.502;24.188;2023-04-21T07:13:24;94788.09;;;13.18;89.38
8366;BME280;4220;42.502;24.188;2023-04-21T07:15:50;94791.63;;;13.23;89.64
8366;BME280;4220;42.502;24.188;2023-04-21T07:18:17;94777.03;;;13.26;90.51
8366;BME280;4220;42.502;24.188;2023-04-21T07:20:44;94796.19;;;13.44;87.83
8366;BME280;4220;42.502;24.188;2023-04-21T07:23:13;94797.63;;;13.52;86.83
8366;BME280;4220;42.502;24.188;2023-04-21T07:25:40;94803.28;;;13.55;86.65
8366;BME280;4220;42.502;24.188;2023-04-21T07:28:07;94792.75;;;13.65;87.17
8366;BME280;4220;42.502;24.188;2023-04-21T07:30:35;94791.88;;;13.82;86.09
8366;BME280;4220;42.502;24.188;2023-04-21T07:33:02;94792.47;;;13.89;85.03
8366;BME280;4220;42.502;24.188;2023-04-21T07:35:29;94792.59;;;13.99;84.13
8366;BME280;4220;42.502;24.188;2023-04-21T07:37:55;94790.59;;;14.11;85.00
8366;BME280;4220;42.502;24.188;2023-04-21T07:40:24;94793.22;;;14.06;83.63
8366;BME280;4220;42.502;24.188;2023-04-21T07:42:51;94792.31;;;13.95;83.30
8366;BME280;4220;42.502;24.188;2023-04-21T07:45:18;94795.13;;;14.10;83.05
8366;BME280;4220;42.502;24.188;2023-04-21T07:47:44;94807.22;;;14.18;82.71
8366;BME280;4220;42.502;24.188;2023-04-21T07:50:11;94794.16;;;14.16;83.21
8366;BME280;4220;42.502;24.188;2023-04-21T07:52:38;94818.13;;;14.38;83.34
8366;BME280;4220;42.502;24.188;2023-04-21T07:55:05;94819.63;;;14.29;82.39
8366;BME280;4220;42.502;24.188;2023-04-21T07:57:34;94812.75;;;14.33;81.14
8366;BME280;4220;42.502;24.188;2023-04-21T08:00:03;94808.50;;;14.32;81.85
8366;BME280;4220;42.502;24.188;2023-04-21T08:02:30;94807.63;;;14.53;82.73
8366;BME280;4220;42.502;24.188;2023-04-21T08:04:57;94811.56;;;14.77;81.16
8366;BME280;4220;42.502;24.188;2023-04-21T08:07:24;94822.34;;;14.87;81.14
8366;BME280;4220;42.502;24.188;2023-04-21T08:09:51;94844.31;;;14.68;80.98
8366;BME280;4220;42.502;24.188;2023-04-21T08:12:18;94834.81;;;14.50;81.56
8366;BME280;4220;42.502;24.188;2023-04-21T08:14:46;94814.59;;;14.54;82.42
8366;BME280;4220;42.502;24.188;2023-04-21T08:17:13;94794.88;;;14.60;82.15
8366;BME280;4220;42.502;24.188;2023-04-21T08:19:40;94816.41;;;14.80;80.86
8366;BME280;4220;42.502;24.188;2023-04-21T08:22:08;94774.44;;;14.71;81.26
8366;BME280;4220;42.502;24.188;2023-04-21T08:24:35;94818.28;;;15.12;81.41
8366;BME280;4220;42.502;24.188;2023-04-21T08:37:47;94815.19;;;15.66;78.47
8366;BME280;4220;42.502;24.188;2023-04-21T08:40:14;94807.28;;;15.87;79.35
8366;BME280;4220;42.502;24.188;2023-04-21T08:42:42;94783.78;;;15.94;75.53
8366;BME280;4220;42.502;24.188;2023-04-21T08:45:09;94802.25;;;16.05;75.26
8366;BME280;4220;42.502;24.188;2023-04-21T08:47:37;94806.56;;;16.06;75.46
8366;BME280;4220;42.502;24.188;2023-04-21T08:50:07;94758.00;;;15.73;75.13
8366;BME280;4220;42.502;24.188;2023-04-21T08:52:37;94798.00;;;16.14;74.32
8366;BME280;4220;42.502;24.188;2023-04-21T08:55:07;94796.47;;;16.33;75.39
8366;BME280;4220;42.502;24.188;2023-04-21T08:57:35;94801.59;;;16.50;75.54
8366;BME280;4220;42.502;24.188;2023-04-21T09:00:02;94805.16;;;16.66;74.24
8366;BME280;4220;42.502;24.188;2023-04-21T09:02:29;94799.00;;;16.85;73.14
8366;BME280;4220;42.502;24.188;2023-04-21T09:04:56;94790.16;;;16.85;72.96
8366;BME280;4220;42.502;24.188;2023-04-21T09:07:32;94786.94;;;17.13;73.76
8366;BME280;4220;42.502;24.188;2023-04-21T09:09:59;94789.63;;;17.23;71.23
8366;BME280;4220;42.502;24.188;2023-04-21T09:12:28;94790.19;;;17.05;70.62
8366;BME280;4220;42.502;24.188;2023-04-21T09:14:55;94788.03;;;16.97;72.02
8366;BME280;4220;42.502;24.188;2023-04-21T09:17:27;94796.03;;;16.72;72.26
8366;BME280;4220;42.502;24.188;2023-04-21T09:19:56;94771.41;;;16.60;72.85
8366;BME280;4220;42.502;24.188;2023-04-21T09:22:26;94739.28;;;16.60;73.03
8366;BME280;4220;42.502;24.188;2023-04-21T09:24:56;94794.97;;;16.68;72.85
8366;BME280;4220;42.502;24.188;2023-04-21T09:27:24;94772.44;;;16.59;73.91
8366;BME280;4220;42.502;24.188;2023-04-21T09:29:53;94777.19;;;16.21;74.92
8366;BME280;4220;42.502;24.188;2023-04-21T09:32:20;94768.06;;;16.22;74.34
8366;BME280;4220;42.502;24.188;2023-04-21T09:34:46;94782.03;;;16.34;73.70
8366;BME280;4220;42.502;24.188;2023-04-21T09:37:14;94775.41;;;16.52;73.88
8366;BME280;4220;42.502;24.188;2023-04-21T09:39:44;94766.06;;;16.90;73.82
8366;BME280;4220;42.502;24.188;2023-04-21T09:42:12;94744.34;;;17.12;74.42
8366;BME280;4220;42.502;24.188;2023-04-21T09:44:39;94780.50;;;17.24;72.40
8366;BME280;4220;42.502;24.188;2023-04-21T09:47:09;94791.22;;;17.24;74.29
8366;BME280;4220;42.502;24.188;2023-04-21T09:49:38;94783.19;;;17.29;74.04
8366;BME280;4220;42.502;24.188;2023-04-21T09:52:10;94787.47;;;17.30;73.50
8366;BME280;4220;42.502;24.188;2023-04-21T09:54:42;94784.25;;;17.28;73.96
8366;BME280;4220;42.502;24.188;2023-04-21T09:57:12;94781.06;;;17.01;73.96
8366;BME280;4220;42.502;24.188;2023-04-21T09:59:44;94779.97;;;16.62;75.74
8366;BME280;4220;42.502;24.188;2023-04-21T10:02:12;94774.59;;;16.52;75.89
8366;BME280;4220;42.502;24.188;2023-04-21T10:04:41;94772.41;;;16.39;77.32
8366;BME280;4220;42.502;24.188;2023-04-21T10:07:09;94774.81;;;16.45;77.40
8366;BME280;4220;42.502;24.188;2023-04-21T10:09:40;94765.50;;;16.63;75.78
8366;BME280;4220;42.502;24.188;2023-04-21T10:12:09;94778.09;;;16.77;76.02
8366;BME280;4220;42.502;24.188;2023-04-21T10:14:36;94766.59;;;16.97;75.74
8366;BME280;4220;42.502;24.188;2023-04-21T10:17:04;94758.00;;;17.10;75.18
8366;BME280;4220;42.502;24.188;2023-04-21T10:19:34;94731.16;;;17.30;74.76
8366;BME280;4220;42.502;24.188;2023-04-21T10:22:05;94772.13;;;17.71;72.17
8366;BME280;4220;42.502;24.188;2023-04-21T10:24:36;94757.41;;;17.48;73.33
8366;BME280;4220;42.502;24.188;2023-04-21T10:27:03;94768.69;;;17.35;73.87
8366;BME280;4220;42.502;24.188;2023-04-21T10:29:33;94755.88;;;17.22;73.04
8366;BME280;4220;42.502;24.188;2023-04-21T10:32:00;94759.06;;;17.29;72.44
8366;BME280;4220;42.502;24.188;2023-04-21T10:34:34;94760.09;;;17.63;70.67
8366;BME280;4220;42.502;24.188;2023-04-21T10:37:10;94760.53;;;17.91;70.42
8366;BME280;4220;42.502;24.188;2023-04-21T10:39:51;94736.63;;;17.89;70.44
8366;BME280;4220;42.502;24.188;2023-04-21T10:42:21;94732.28;;;17.24;71.24
8366;BME280;4220;42.502;24.188;2023-04-21T10:47:36;94769.19;;;17.62;70.54
8366;BME280;4220;42.502;24.188;2023-04-21T10:50:12;94779.84;;;17.88;70.11
8366;BME280;4220;42.502;24.188;2023-04-21T10:52:43;94738.16;;;18.10;68.34
8366;BME280;4220;42.502;24.188;2023-04-21T10:55:11;94770.47;;;18.39;67.88
8366;BME280;4220;42.502;24.188;2023-04-21T10:57:42;94767.00;;;18.82;67.60
8366;BME280;4220;42.502;24.188;2023-04-21T11:00:14;94757.66;;;19.09;66.76
8366;BME280;4220;42.502;24.188;2023-04-21T11:02:42;94789.84;;;18.80;66.12
8366;BME280;4220;42.502;24.188;2023-04-21T11:05:11;94765.69;;;18.75;67.73
8366;BME280;4220;42.502;24.188;2023-04-21T11:07:38;94768.59;;;18.50;66.32
8366;BME280;4220;42.502;24.188;2023-04-21T11:10:06;94766.28;;;18.23;67.04
8366;BME280;4220;42.502;24.188;2023-04-21T11:12:37;94764.97;;;18.20;66.37
8366;BME280;4220;42.502;24.188;2023-04-21T11:15:06;94751.38;;;17.97;67.27
8366;BME280;4220;42.502;24.188;2023-04-21T11:17:34;94757.25;;;17.99;68.02
8366;BME280;4220;42.502;24.188;2023-04-21T11:20:03;94759.75;;;17.80;68.07
8366;BME280;4220;42.502;24.188;2023-04-21T11:22:32;94753.41;;;17.56;68.12
8366;BME280;4220;42.502;24.188;2023-04-21T11:24:59;94756.88;;;17.61;67.99
8366;BME280;4220;42.502;24.188;2023-04-21T11:27:27;94779.72;;;17.19;67.56
8366;BME280;4220;42.502;24.188;2023-04-21T11:29:55;94760.66;;;17.15;68.48
8366;BME280;4220;42.502;24.188;2023-04-21T11:32:23;94762.00;;;17.08;69.15
8366;BME280;4220;42.502;24.188;2023-04-21T11:34:50;94767.38;;;17.18;69.00
8366;BME280;4220;42.502;24.188;2023-04-21T11:37:22;94762.56;;;17.20;69.19
8366;BME280;4220;42.502;24.188;2023-04-21T11:39:57;94770.00;;;17.43;68.17
8366;BME280;4220;42.502;24.188;2023-04-21T11:42:24;94760.09;;;17.58;67.92
8366;BME280;4220;42.502;24.188;2023-04-21T11:44:53;94759.00;;;17.49;66.48
8366;BME280;4220;42.502;24.188;2023-04-21T11:47:22;94753.63;;;17.59;66.98
8366;BME280;4220;42.502;24.188;2023-04-21T11:49:51;94718.56;;;17.31;67.49
8366;BME280;4220;42.502;24.188;2023-04-21T11:52:23;94751.25;;;17.48;67.37
8366;BME280;4220;42.502;24.188;2023-04-21T11:54:55;94750.44;;;17.52;67.18
8366;BME280;4220;42.502;24.188;2023-04-21T11:57:25;94730.06;;;17.56;66.74
8366;BME280;4220;42.502;24.188;2023-04-21T11:59:52;94743.47;;;17.56;65.94
8366;BME280;4220;42.502;24.188;2023-04-21T12:02:26;94738.38;;;17.40;66.60
8366;BME280;4220;42.502;24.188;2023-04-21T12:04:57;94737.03;;;17.47;66.89
8366;BME280;4220;42.502;24.188;2023-04-21T12:07:25;94734.56;;;17.81;66.14
8366;BME280;4220;42.502;24.188;2023-04-21T12:09:52;94725.88;;;17.94;65.47
8366;BME280;4220;42.502;24.188;2023-04-21T12:12:20;94726.63;;;18.10;65.69
8366;BME280;4220;42.502;24.188;2023-04-21T12:14:49;94727.06;;;18.27;65.18
8366;BME280;4220;42.502;24.188;2023-04-21T12:17:17;94734.03;;;18.72;63.39
8366;BME280;4220;42.502;24.188;2023-04-21T12:19:44;94732.22;;;19.25;60.63
8366;BME280;4220;42.502;24.188;2023-04-21T12:22:13;94727.44;;;19.74;59.29
8366;BME280;4220;42.502;24.188;2023-04-21T12:24:40;94726.81;;;19.82;58.64
8366;BME280;4220;42.502;24.188;2023-04-21T12:27:08;94722.22;;;19.59;59.09
8366;BME280;4220;42.502;24.188;2023-04-21T12:29:35;94739.16;;;19.83;59.19
8366;BME280;4220;42.502;24.188;2023-04-21T12:32:05;94728.47;;;19.54;59.98
8366;BME280;4220;42.502;24.188;2023-04-21T12:34:32;94737.16;;;19.18;59.98
8366;BME280;4220;42.502;24.188;2023-04-21T12:36:59;94792.84;;;18.73;62.71
8366;BME280;4220;42.502;24.188;2023-04-21T12:39:26;94617.13;;;16.89;67.89
8366;BME280;4220;42.502;24.188;2023-04-21T12:41:53;94732.56;;;17.03;69.35
8366;BME280;4220;42.502;24.188;2023-04-21T12:44:20;94753.13;;;16.47;71.84
8366;BME280;4220;42.502;24.188;2023-04-21T12:46:47;94731.84;;;15.80;79.38
8366;BME280;4220;42.502;24.188;2023-04-21T12:49:16;94761.63;;;15.10;81.68
8366;BME280;4220;42.502;24.188;2023-04-21T12:51:43;94760.72;;;14.62;80.48
8366;BME280;4220;42.502;24.188;2023-04-21T12:54:11;94740.91;;;14.26;85.62
8366;BME280;4220;42.502;24.188;2023-04-21T12:56:38;94718.91;;;14.14;85.55
8366;BME280;4220;42.502;24.188;2023-04-21T12:59:06;94732.72;;;14.33;82.78
8366;BME280;4220;42.502;24.188;2023-04-21T13:01:34;94758.53;;;14.54;78.59
8366;BME280;4220;42.502;24.188;2023-04-21T13:04:01;94768.06;;;14.77;74.23
8366;BME280;4220;42.502;24.188;2023-04-21T13:06:29;94758.81;;;14.89;78.81
8366;BME280;4220;42.502;24.188;2023-04-21T13:08:57;94778.09;;;14.96;70.49
8366;BME280;4220;42.502;24.188;2023-04-21T13:11:24;94749.75;;;15.32;71.84
8366;BME280;4220;42.502;24.188;2023-04-21T13:13:51;94758.44;;;16.16;74.75
8366;BME280;4220;42.502;24.188;2023-04-21T13:16:18;94757.22;;;16.74;68.97
8366;BME280;4220;42.502;24.188;2023-04-21T13:18:45;94746.22;;;16.71;72.50
8366;BME280;4220;42.502;24.188;2023-04-21T13:21:12;94741.34;;;16.32;75.35
8366;BME280;4220;42.502;24.188;2023-04-21T13:23:40;94729.53;;;16.13;77.22